Terminal Aerodrome Forecast
Issued by NWS Houston/Galveston TX

Home | Current Version | Previous Version | Text Only | Print | Product List | Glossary On
Versions: 1 2 3 4 5 6 7 8 9 10 11 12 13 14 15 16 17 18 19 20 21 22 23 24 25 26 27
000
FTUS44 KHGX 211126
TAFHOU
TAF
KHOU 211126Z 2112/2212 11009KT P6SM SCT008 BKN015
     FM211500 14012KT P6SM BKN025 OVC035
     FM212100 13009KT P6SM VCSH BKN025 BKN040
     FM220300 14008KT P6SM VCTS BKN025CB PROB30 2207/2210 TSRA
      BKN015CB
     FM221000 29010KT P6SM BKN015=

USA.gov is the U.S. government's official web portal to all federal, state and local government web resources and services.